sensor_id;sensor_type;location;lat;lon;timestamp;P1;durP1;ratioP1;P2;durP2;ratioP2
6999;SDS011;3540;53.242;10.408;2023-11-19T00:00:36;7.47;;;5.57;;
6999;SDS011;3540;53.242;10.408;2023-11-19T00:03:02;7.57;;;5.43;;
6999;SDS011;3540;53.242;10.408;2023-11-19T00:05:28;7.87;;;4.90;;
6999;SDS011;3540;53.242;10.408;2023-11-19T00:07:54;5.37;;;4.60;;
6999;SDS011;3540;53.242;10.408;2023-11-19T00:10:19;5.40;;;4.67;;
6999;SDS011;3540;53.242;10.408;2023-11-19T00:12:46;5.07;;;4.40;;
6999;SDS011;3540;53.242;10.408;2023-11-19T00:15:13;5.40;;;4.10;;
6999;SDS011;3540;53.242;10.408;2023-11-19T00:17:42;4.30;;;3.67;;
6999;SDS011;3540;53.242;10.408;2023-11-19T00:20:13;4.47;;;4.00;;
6999;SDS011;3540;53.242;10.408;2023-11-19T00:22:41;5.03;;;3.90;;
6999;SDS011;3540;53.242;10.408;2023-11-19T00:25:07;5.37;;;3.80;;
6999;SDS011;3540;53.242;10.408;2023-11-19T00:27:34;4.07;;;3.67;;
6999;SDS011;3540;53.242;10.408;2023-11-19T00:30:00;4.00;;;3.60;;
6999;SDS011;3540;53.242;10.408;2023-11-19T00:32:26;4.17;;;3.60;;
6999;SDS011;3540;53.242;10.408;2023-11-19T00:34:51;4.20;;;3.70;;
6999;SDS011;3540;53.242;10.408;2023-11-19T00:37:17;4.60;;;3.67;;
6999;SDS011;3540;53.242;10.408;2023-11-19T00:39:43;4.93;;;3.13;;
6999;SDS011;3540;53.242;10.408;2023-11-19T00:42:08;4.27;;;3.80;;
6999;SDS011;3540;53.242;10.408;2023-11-19T00:44:38;4.23;;;3.50;;
6999;SDS011;3540;53.242;10.408;2023-11-19T00:47:04;4.90;;;3.80;;
6999;SDS011;3540;53.242;10.408;2023-11-19T00:49:30;4.50;;;3.60;;
6999;SDS011;3540;53.242;10.408;2023-11-19T00:51:57;4.33;;;3.50;;
6999;SDS011;3540;53.242;10.408;2023-11-19T00:54:24;4.47;;;3.60;;
6999;SDS011;3540;53.242;10.408;2023-11-19T00:56:51;4.07;;;3.37;;
6999;SDS011;3540;53.242;10.408;2023-11-19T00:59:17;5.67;;;3.80;;
6999;SDS011;3540;53.242;10.408;2023-11-19T01:01:43;6.13;;;3.50;;
6999;SDS011;3540;53.242;10.408;2023-11-19T01:04:09;4.30;;;3.60;;
6999;SDS011;3540;53.242;10.408;2023-11-19T01:06:34;3.73;;;3.40;;
6999;SDS011;3540;53.242;10.408;2023-11-19T01:09:00;3.87;;;3.50;;
6999;SDS011;3540;53.242;10.408;2023-11-19T01:11:26;4.57;;;3.67;;
6999;SDS011;3540;53.242;10.408;2023-11-19T01:13:51;4.70;;;3.70;;
6999;SDS011;3540;53.242;10.408;2023-11-19T01:16:17;4.63;;;3.47;;
6999;SDS011;3540;53.242;10.408;2023-11-19T01:18:44;4.93;;;3.70;;
6999;SDS011;3540;53.242;10.408;2023-11-19T01:21:11;4.20;;;3.80;;
6999;SDS011;3540;53.242;10.408;2023-11-19T01:23:37;5.00;;;3.30;;
6999;SDS011;3540;53.242;10.408;2023-11-19T01:26:03;4.23;;;3.47;;
6999;SDS011;3540;53.242;10.408;2023-11-19T01:28:30;4.37;;;2.87;;
6999;SDS011;3540;53.242;10.408;2023-11-19T01:30:56;4.70;;;3.30;;
6999;SDS011;3540;53.242;10.408;2023-11-19T01:33:22;3.40;;;2.90;;
6999;SDS011;3540;53.242;10.408;2023-11-19T01:35:47;4.20;;;3.10;;
6999;SDS011;3540;53.242;10.408;2023-11-19T01:38:13;3.87;;;3.10;;
6999;SDS011;3540;53.242;10.408;2023-11-19T01:40:39;3.60;;;3.00;;
6999;SDS011;3540;53.242;10.408;2023-11-19T01:43:05;4.40;;;3.40;;
6999;SDS011;3540;53.242;10.408;2023-11-19T01:45:31;3.63;;;3.17;;
6999;SDS011;3540;53.242;10.408;2023-11-19T01:47:59;4.63;;;3.73;;
6999;SDS011;3540;53.242;10.408;2023-11-19T01:50:29;3.40;;;3.10;;
6999;SDS011;3540;53.242;10.408;2023-11-19T01:52:56;4.40;;;3.27;;
6999;SDS011;3540;53.242;10.408;2023-11-19T01:55:22;5.23;;;3.90;;
6999;SDS011;3540;53.242;10.408;2023-11-19T01:57:50;4.27;;;3.47;;
6999;SDS011;3540;53.242;10.408;2023-11-19T02:00:18;4.50;;;3.77;;
6999;SDS011;3540;53.242;10.408;2023-11-19T02:02:44;5.27;;;3.80;;
6999;SDS011;3540;53.242;10.408;2023-11-19T02:05:13;4.50;;;4.10;;
6999;SDS011;3540;53.242;10.408;2023-11-19T02:07:39;6.43;;;4.20;;
6999;SDS011;3540;53.242;10.408;2023-11-19T02:10:05;5.00;;;4.20;;
6999;SDS011;3540;53.242;10.408;2023-11-19T02:12:37;8.60;;;4.40;;
6999;SDS011;3540;53.242;10.408;2023-11-19T02:15:07;5.40;;;4.30;;
6999;SDS011;3540;53.242;10.408;2023-11-19T02:17:34;5.43;;;4.20;;
6999;SDS011;3540;53.242;10.408;2023-11-19T02:20:00;8.47;;;4.53;;
6999;SDS011;3540;53.242;10.408;2023-11-19T02:22:25;5.00;;;4.20;;
6999;SDS011;3540;53.242;10.408;2023-11-19T02:24:51;4.90;;;4.37;;
6999;SDS011;3540;53.242;10.408;2023-11-19T02:30:21;5.00;;;4.33;;
6999;SDS011;3540;53.242;10.408;2023-11-19T02:32:54;4.80;;;4.30;;
6999;SDS011;3540;53.242;10.408;2023-11-19T02:35:22;5.13;;;4.23;;
6999;SDS011;3540;53.242;10.408;2023-11-19T02:37:48;4.03;;;3.63;;
6999;SDS011;3540;53.242;10.408;2023-11-19T02:40:14;4.33;;;3.90;;
6999;SDS011;3540;53.242;10.408;2023-11-19T02:42:40;4.07;;;3.23;;
6999;SDS011;3540;53.242;10.408;2023-11-19T02:45:06;4.67;;;3.37;;
6999;SDS011;3540;53.242;10.408;2023-11-19T02:47:33;3.77;;;3.40;;
6999;SDS011;3540;53.242;10.408;2023-11-19T02:49:59;3.90;;;3.50;;
6999;SDS011;3540;53.242;10.408;2023-11-19T02:52:25;5.30;;;3.93;;
6999;SDS011;3540;53.242;10.408;2023-11-19T02:54:50;3.80;;;3.50;;
6999;SDS011;3540;53.242;10.408;2023-11-19T02:57:16;3.97;;;3.57;;
6999;SDS011;3540;53.242;10.408;2023-11-19T02:59:44;3.90;;;3.50;;
6999;SDS011;3540;53.242;10.408;2023-11-19T03:02:10;3.03;;;2.83;;
6999;SDS011;3540;53.242;10.408;2023-11-19T03:04:36;3.27;;;2.90;;
6999;SDS011;3540;53.242;10.408;2023-11-19T03:07:06;3.87;;;2.70;;
6999;SDS011;3540;53.242;10.408;2023-11-19T03:09:32;3.13;;;2.70;;
6999;SDS011;3540;53.242;10.408;2023-11-19T03:11:59;2.60;;;2.40;;
6999;SDS011;3540;53.242;10.408;2023-11-19T03:14:25;2.60;;;2.40;;
6999;SDS011;3540;53.242;10.408;2023-11-19T03:16:51;1.90;;;1.80;;
6999;SDS011;3540;53.242;10.408;2023-11-19T03:19:17;2.30;;;2.00;;
6999;SDS011;3540;53.242;10.408;2023-11-19T03:21:42;2.80;;;2.20;;
6999;SDS011;3540;53.242;10.408;2023-11-19T03:24:09;1.70;;;1.60;;
6999;SDS011;3540;53.242;10.408;2023-11-19T03:26:35;1.90;;;1.80;;
6999;SDS011;3540;53.242;10.408;2023-11-19T03:29:02;2.20;;;1.70;;
6999;SDS011;3540;53.242;10.408;2023-11-19T03:31:28;1.57;;;1.47;;
6999;SDS011;3540;53.242;10.408;2023-11-19T03:33:53;1.70;;;1.60;;
6999;SDS011;3540;53.242;10.408;2023-11-19T03:36:19;1.77;;;1.60;;
6999;SDS011;3540;53.242;10.408;2023-11-19T03:38:45;2.90;;;1.47;;
6999;SDS011;3540;53.242;10.408;2023-11-19T03:41:12;2.60;;;1.30;;
6999;SDS011;3540;53.242;10.408;2023-11-19T03:43:38;1.53;;;1.43;;
6999;SDS011;3540;53.242;10.408;2023-11-19T03:46:04;1.53;;;1.27;;
6999;SDS011;3540;53.242;10.408;2023-11-19T03:48:40;1.53;;;1.43;;
6999;SDS011;3540;53.242;10.408;2023-11-19T03:51:05;1.50;;;1.40;;
6999;SDS011;3540;53.242;10.408;2023-11-19T03:53:31;1.40;;;1.30;;
6999;SDS011;3540;53.242;10.408;2023-11-19T03:55:56;1.80;;;1.30;;
6999;SDS011;3540;53.242;10.408;2023-11-19T03:58:22;1.50;;;1.40;;
6999;SDS011;3540;53.242;10.408;2023-11-19T04:00:47;1.33;;;1.23;;
6999;SDS011;3540;53.242;10.408;2023-11-19T04:03:13;1.40;;;1.30;;
6999;SDS011;3540;53.242;10.408;2023-11-19T04:05:39;1.30;;;1.20;;
6999;SDS011;3540;53.242;10.408;2023-11-19T04:08:04;2.00;;;1.40;;
6999;SDS011;3540;53.242;10.408;2023-11-19T04:10:30;3.70;;;1.60;;
6999;SDS011;3540;53.242;10.408;2023-11-19T04:12:56;3.90;;;1.73;;
6999;SDS011;3540;53.242;10.408;2023-11-19T04:15:21;2.40;;;1.30;;
6999;SDS011;3540;53.242;10.408;2023-11-19T04:17:47;4.13;;;1.50;;
6999;SDS011;3540;53.242;10.408;2023-11-19T04:20:13;2.30;;;1.60;;
6999;SDS011;3540;53.242;10.408;2023-11-19T04:22:39;1.57;;;1.47;;
6999;SDS011;3540;53.242;10.408;2023-11-19T04:25:05;3.10;;;1.40;;
6999;SDS011;3540;53.242;10.408;2023-11-19T04:27:31;3.30;;;1.60;;
6999;SDS011;3540;53.242;10.408;2023-11-19T04:29:56;1.60;;;1.50;;
6999;SDS011;3540;53.242;10.408;2023-11-19T04:32:22;1.60;;;1.50;;
6999;SDS011;3540;53.242;10.408;2023-11-19T04:34:47;2.20;;;1.73;;
6999;SDS011;3540;53.242;10.408;2023-11-19T04:37:13;2.27;;;2.07;;
6999;SDS011;3540;53.242;10.408;2023-11-19T04:39:39;2.57;;;1.83;;
6999;SDS011;3540;53.242;10.408;2023-11-19T04:42:04;3.20;;;2.23;;
6999;SDS011;3540;53.242;10.408;2023-11-19T04:44:31;4.80;;;2.50;;
6999;SDS011;3540;53.242;10.408;2023-11-19T04:46:57;4.07;;;2.73;;
6999;SDS011;3540;53.242;10.408;2023-11-19T04:49:23;3.00;;;2.80;;
6999;SDS011;3540;53.242;10.408;2023-11-19T04:51:49;4.10;;;3.10;;
6999;SDS011;3540;53.242;10.408;2023-11-19T04:54:15;4.10;;;3.10;;
6999;SDS011;3540;53.242;10.408;2023-11-19T04:56:44;4.23;;;3.43;;
6999;SDS011;3540;53.242;10.408;2023-11-19T04:59:10;4.27;;;3.50;;
6999;SDS011;3540;53.242;10.408;2023-11-19T05:01:36;4.30;;;3.90;;
6999;SDS011;3540;53.242;10.408;2023-11-19T05:04:01;3.87;;;3.57;;
6999;SDS011;3540;53.242;10.408;2023-11-19T05:06:28;4.47;;;3.90;;
6999;SDS011;3540;53.242;10.408;2023-11-19T05:08:59;5.10;;;4.60;;
6999;SDS011;3540;53.242;10.408;2023-11-19T05:11:30;6.57;;;4.97;;
6999;SDS011;3540;53.242;10.408;2023-11-19T05:13:55;7.03;;;4.80;;
6999;SDS011;3540;53.242;10.408;2023-11-19T05:16:21;5.90;;;4.93;;
6999;SDS011;3540;53.242;10.408;2023-11-19T05:18:46;6.90;;;5.80;;
6999;SDS011;3540;53.242;10.408;2023-11-19T05:21:12;8.60;;;6.00;;
6999;SDS011;3540;53.242;10.408;2023-11-19T05:23:38;6.37;;;5.77;;
6999;SDS011;3540;53.242;10.408;2023-11-19T05:26:04;8.47;;;6.73;;
6999;SDS011;3540;53.242;10.408;2023-11-19T05:28:30;11.00;;;6.47;;
6999;SDS011;3540;53.242;10.408;2023-11-19T05:30:55;11.43;;;7.07;;
6999;SDS011;3540;53.242;10.408;2023-11-19T05:33:21;10.77;;;7.17;;
6999;SDS011;3540;53.242;10.408;2023-11-19T05:35:47;9.30;;;7.43;;
6999;SDS011;3540;53.242;10.408;2023-11-19T05:38:13;9.47;;;7.27;;
6999;SDS011;3540;53.242;10.408;2023-11-19T05:40:39;12.77;;;8.47;;
6999;SDS011;3540;53.242;10.408;2023-11-19T05:43:05;12.30;;;8.30;;
6999;SDS011;3540;53.242;10.408;2023-11-19T05:45:31;14.30;;;8.40;;
6999;SDS011;3540;53.242;10.408;2023-11-19T05:47:58;14.37;;;9.23;;
6999;SDS011;3540;53.242;10.408;2023-11-19T05:50:23;10.73;;;8.13;;
6999;SDS011;3540;53.242;10.408;2023-11-19T05:52:49;13.43;;;9.07;;
6999;SDS011;3540;53.242;10.408;2023-11-19T05:55:15;17.43;;;9.37;;
6999;SDS011;3540;53.242;10.408;2023-11-19T05:57:41;13.17;;;9.20;;
6999;SDS011;3540;53.242;10.408;2023-11-19T06:00:07;11.87;;;8.83;;
6999;SDS011;3540;53.242;10.408;2023-11-19T06:02:33;11.20;;;8.50;;
6999;SDS011;3540;53.242;10.408;2023-11-19T06:04:59;10.87;;;8.43;;
6999;SDS011;3540;53.242;10.408;2023-11-19T06:07:26;11.63;;;8.50;;
6999;SDS011;3540;53.242;10.408;2023-11-19T06:09:52;14.20;;;8.93;;
6999;SDS011;3540;53.242;10.408;2023-11-19T06:12:17;16.10;;;8.80;;
6999;SDS011;3540;53.242;10.408;2023-11-19T06:14:43;15.37;;;9.13;;
6999;SDS011;3540;53.242;10.408;2023-11-19T06:17:08;17.50;;;9.43;;
6999;SDS011;3540;53.242;10.408;2023-11-19T06:19:36;14.30;;;9.13;;
6999;SDS011;3540;53.242;10.408;2023-11-19T06:22:02;13.27;;;8.97;;
6999;SDS011;3540;53.242;10.408;2023-11-19T06:24:28;15.13;;;9.07;;
6999;SDS011;3540;53.242;10.408;2023-11-19T06:26:54;16.33;;;9.47;;
6999;SDS011;3540;53.242;10.408;2023-11-19T06:29:19;15.57;;;9.03;;
6999;SDS011;3540;53.242;10.408;2023-11-19T06:31:45;17.33;;;9.27;;
6999;SDS011;3540;53.242;10.408;2023-11-19T06:34:13;17.23;;;9.40;;
6999;SDS011;3540;53.242;10.408;2023-11-19T06:36:39;19.07;;;9.33;;
6999;SDS011;3540;53.242;10.408;2023-11-19T06:39:05;17.70;;;10.30;;
6999;SDS011;3540;53.242;10.408;2023-11-19T06:41:31;22.80;;;10.23;;
6999;SDS011;3540;53.242;10.408;2023-11-19T06:43:56;20.60;;;9.13;;
6999;SDS011;3540;53.242;10.408;2023-11-19T06:46:22;21.83;;;9.13;;
6999;SDS011;3540;53.242;10.408;2023-11-19T06:48:48;25.80;;;9.40;;
6999;SDS011;3540;53.242;10.408;2023-11-19T06:51:13;25.63;;;9.67;;
6999;SDS011;3540;53.242;10.408;2023-11-19T06:53:39;28.73;;;9.70;;
6999;SDS011;3540;53.242;10.408;2023-11-19T06:56:06;25.43;;;9.30;;
6999;SDS011;3540;53.242;10.408;2023-11-19T06:58:42;23.07;;;9.63;;
6999;SDS011;3540;53.242;10.408;2023-11-19T07:01:07;32.93;;;9.03;;
6999;SDS011;3540;53.242;10.408;2023-11-19T07:03:34;33.43;;;9.77;;
6999;SDS011;3540;53.242;10.408;2023-11-19T07:06:00;28.33;;;8.97;;
6999;SDS011;3540;53.242;10.408;2023-11-19T07:08:25;28.90;;;9.30;;
6999;SDS011;3540;53.242;10.408;2023-11-19T07:10:51;32.13;;;9.27;;
6999;SDS011;3540;53.242;10.408;2023-11-19T07:13:18;28.00;;;9.00;;
6999;SDS011;3540;53.242;10.408;2023-11-19T07:15:44;33.40;;;9.20;;
6999;SDS011;3540;53.242;10.408;2023-11-19T07:18:10;31.93;;;9.00;;
6999;SDS011;3540;53.242;10.408;2023-11-19T07:20:36;35.70;;;9.83;;
6999;SDS011;3540;53.242;10.408;2023-11-19T07:23:03;31.90;;;8.80;;
6999;SDS011;3540;53.242;10.408;2023-11-19T07:25:29;30.00;;;8.60;;
6999;SDS011;3540;53.242;10.408;2023-11-19T07:27:54;32.90;;;8.10;;
6999;SDS011;3540;53.242;10.408;2023-11-19T07:30:20;30.50;;;8.17;;
6999;SDS011;3540;53.242;10.408;2023-11-19T07:32:47;31.67;;;8.67;;
6999;SDS011;3540;53.242;10.408;2023-11-19T07:35:13;29.37;;;7.53;;
6999;SDS011;3540;53.242;10.408;2023-11-19T07:37:40;29.57;;;7.83;;
6999;SDS011;3540;53.242;10.408;2023-11-19T07:40:07;29.53;;;7.60;;
6999;SDS011;3540;53.242;10.408;2023-11-19T07:42:33;37.20;;;7.17;;
6999;SDS011;3540;53.242;10.408;2023-11-19T07:44:59;27.53;;;6.77;;
6999;SDS011;3540;53.242;10.408;2023-11-19T07:47:24;27.63;;;7.40;;
6999;SDS011;3540;53.242;10.408;2023-11-19T07:49:50;22.03;;;5.70;;
6999;SDS011;3540;53.242;10.408;2023-11-19T07:52:16;30.40;;;6.27;;
6999;SDS011;3540;53.242;10.408;2023-11-19T07:54:41;26.67;;;6.30;;
6999;SDS011;3540;53.242;10.408;2023-11-19T07:57:07;26.03;;;5.50;;
6999;SDS011;3540;53.242;10.408;2023-11-19T07:59:33;26.57;;;4.93;;
6999;SDS011;3540;53.242;10.408;2023-11-19T08:01:58;20.97;;;4.20;;
6999;SDS011;3540;53.242;10.408;2023-11-19T08:04:24;22.37;;;5.30;;
6999;SDS011;3540;53.242;10.408;2023-11-19T08:06:50;21.13;;;5.40;;
6999;SDS011;3540;53.242;10.408;2023-11-19T08:09:16;22.40;;;5.17;;
6999;SDS011;3540;53.242;10.408;2023-11-19T08:11:42;18.73;;;4.40;;
6999;SDS011;3540;53.242;10.408;2023-11-19T08:14:08;23.00;;;5.00;;
6999;SDS011;3540;53.242;10.408;2023-11-19T08:16:34;23.87;;;4.63;;
6999;SDS011;3540;53.242;10.408;2023-11-19T08:19:02;25.00;;;5.50;;
6999;SDS011;3540;53.242;10.408;2023-11-19T08:21:28;25.80;;;4.97;;
6999;SDS011;3540;53.242;10.408;2023-11-19T08:23:54;27.03;;;5.17;;
6999;SDS011;3540;53.242;10.408;2023-11-19T08:26:19;22.53;;;4.60;;
6999;SDS011;3540;53.242;10.408;2023-11-19T08:28:45;27.40;;;5.37;;
6999;SDS011;3540;53.242;10.408;2023-11-19T08:31:11;24.40;;;5.00;;
6999;SDS011;3540;53.242;10.408;2023-11-19T08:33:36;29.17;;;5.23;;
6999;SDS011;3540;53.242;10.408;2023-11-19T08:36:02;30.03;;;5.27;;
6999;SDS011;3540;53.242;10.408;2023-11-19T08:38:29;27.17;;;5.53;;
6999;SDS011;3540;53.242;10.408;2023-11-19T08:40:54;34.97;;;5.87;;
6999;SDS011;3540;53.242;10.408;2023-11-19T08:43:24;27.50;;;6.30;;
6999;SDS011;3540;53.242;10.408;2023-11-19T08:45:53;29.87;;;5.60;;
6999;SDS011;3540;53.242;10.408;2023-11-19T08:48:18;35.43;;;6.37;;
6999;SDS011;3540;53.242;10.408;2023-11-19T08:50:44;32.37;;;5.77;;
6999;SDS011;3540;53.242;10.408;2023-11-19T08:53:09;31.27;;;5.70;;
6999;SDS011;3540;53.242;10.408;2023-11-19T08:55:36;27.20;;;5.73;;
6999;SDS011;3540;53.242;10.408;2023-11-19T08:58:01;29.10;;;5.83;;
6999;SDS011;3540;53.242;10.408;2023-11-19T09:00:27;27.00;;;5.77;;
6999;SDS011;3540;53.242;10.408;2023-11-19T09:02:53;38.10;;;6.60;;
6999;SDS011;3540;53.242;10.408;2023-11-19T09:05:18;24.23;;;5.57;;
6999;SDS011;3540;53.242;10.408;2023-11-19T09:07:44;23.47;;;5.13;;
6999;SDS011;3540;53.242;10.408;2023-11-19T09:10:10;30.07;;;6.23;;
6999;SDS011;3540;53.242;10.408;2023-11-19T09:12:36;26.33;;;6.10;;
6999;SDS011;3540;53.242;10.408;2023-11-19T09:15:22;33.03;;;5.97;;
6999;SDS011;3540;53.242;10.408;2023-11-19T09:17:48;26.43;;;5.50;;
6999;SDS011;3540;53.242;10.408;2023-11-19T09:20:13;26.53;;;5.37;;
6999;SDS011;3540;53.242;10.408;2023-11-19T09:22:40;28.97;;;5.30;;
6999;SDS011;3540;53.242;10.408;2023-11-19T09:25:06;28.97;;;5.07;;
6999;SDS011;3540;53.242;10.408;2023-11-19T09:27:32;27.43;;;5.37;;
6999;SDS011;3540;53.242;10.408;2023-11-19T09:29:58;30.33;;;5.37;;
6999;SDS011;3540;53.242;10.408;2023-11-19T09:32:24;29.17;;;6.40;;
6999;SDS011;3540;53.242;10.408;2023-11-19T09:34:50;29.33;;;5.93;;
6999;SDS011;3540;53.242;10.408;2023-11-19T09:37:16;31.13;;;7.13;;
6999;SDS011;3540;53.242;10.408;2023-11-19T09:39:41;33.13;;;6.03;;
6999;SDS011;3540;53.242;10.408;2023-11-19T09:42:10;31.00;;;6.50;;
6999;SDS011;3540;53.242;10.408;2023-11-19T09:44:37;34.83;;;5.97;;
6999;SDS011;3540;53.242;10.408;2023-11-19T09:47:04;32.27;;;6.27;;
6999;SDS011;3540;53.242;10.408;2023-11-19T09:49:31;31.83;;;6.27;;
6999;SDS011;3540;53.242;10.408;2023-11-19T09:52:00;29.23;;;5.93;;
6999;SDS011;3540;53.242;10.408;2023-11-19T09:54:26;37.23;;;7.30;;
6999;SDS011;3540;53.242;10.408;2023-11-19T09:56:52;30.20;;;6.37;;
6999;SDS011;3540;53.242;10.408;2023-11-19T09:59:18;33.77;;;6.80;;
6999;SDS011;3540;53.242;10.408;2023-11-19T10:01:44;34.27;;;6.60;;
6999;SDS011;3540;53.242;10.408;2023-11-19T10:04:12;30.23;;;6.40;;
6999;SDS011;3540;53.242;10.408;2023-11-19T10:06:41;24.80;;;6.17;;
6999;SDS011;3540;53.242;10.408;2023-11-19T10:09:07;25.97;;;6.27;;
6999;SDS011;3540;53.242;10.408;2023-11-19T10:11:32;28.00;;;5.40;;
6999;SDS011;3540;53.242;10.408;2023-11-19T10:13:59;29.83;;;5.90;;
6999;SDS011;3540;53.242;10.408;2023-11-19T10:16:29;26.67;;;5.50;;
6999;SDS011;3540;53.242;10.408;2023-11-19T10:18:57;31.83;;;6.60;;
6999;SDS011;3540;53.242;10.408;2023-11-19T10:21:23;30.57;;;6.20;;
6999;SDS011;3540;53.242;10.408;2023-11-19T10:23:50;30.93;;;6.13;;
6999;SDS011;3540;53.242;10.408;2023-11-19T10:26:18;31.43;;;6.77;;
6999;SDS011;3540;53.242;10.408;2023-11-19T10:28:45;33.93;;;6.90;;
6999;SDS011;3540;53.242;10.408;2023-11-19T10:31:18;34.23;;;6.03;;
6999;SDS011;3540;53.242;10.408;2023-11-19T10:33:45;32.23;;;5.77;;
6999;SDS011;3540;53.242;10.408;2023-11-19T10:36:12;33.33;;;6.13;;
6999;SDS011;3540;53.242;10.408;2023-11-19T10:38:38;30.27;;;5.93;;
6999;SDS011;3540;53.242;10.408;2023-11-19T10:41:05;29.37;;;5.90;;
6999;SDS011;3540;53.242;10.408;2023-11-19T10:43:31;31.30;;;5.37;;
6999;SDS011;3540;53.242;10.408;2023-11-19T10:46:11;30.37;;;5.33;;
6999;SDS011;3540;53.242;10.408;2023-11-19T10:48:38;31.20;;;5.73;;
6999;SDS011;3540;53.242;10.408;2023-11-19T10:51:06;32.60;;;5.80;;
6999;SDS011;3540;53.242;10.408;2023-11-19T10:53:37;35.47;;;6.90;;
6999;SDS011;3540;53.242;10.408;2023-11-19T10:56:06;32.47;;;6.07;;
6999;SDS011;3540;53.242;10.408;2023-11-19T10:58:36;29.27;;;5.53;;
6999;SDS011;3540;53.242;10.408;2023-11-19T11:01:07;26.60;;;5.47;;
6999;SDS011;3540;53.242;10.408;2023-11-19T11:03:39;32.80;;;5.70;;
6999;SDS011;3540;53.242;10.408;2023-11-19T11:06:05;29.90;;;6.63;;
6999;SDS011;3540;53.242;10.408;2023-11-19T11:08:31;28.33;;;5.83;;
6999;SDS011;3540;53.242;10.408;2023-11-19T11:11:00;33.20;;;5.57;;
6999;SDS011;3540;53.242;10.408;2023-11-19T11:13:29;24.63;;;6.33;;
6999;SDS011;3540;53.242;10.408;2023-11-19T11:15:56;32.73;;;6.53;;
6999;SDS011;3540;53.242;10.408;2023-11-19T11:18:26;30.90;;;6.40;;
6999;SDS011;3540;53.242;10.408;2023-11-19T11:20:53;38.00;;;7.03;;
6999;SDS011;3540;53.242;10.408;2023-11-19T11:28:59;30.83;;;6.63;;
6999;SDS011;3540;53.242;10.408;2023-11-19T11:37:20;29.20;;;5.77;;
6999;SDS011;3540;53.242;10.408;2023-11-19T11:39:57;29.40;;;5.57;;
6999;SDS011;3540;53.242;10.408;2023-11-19T11:45:08;29.37;;;6.03;;
6999;SDS011;3540;53.242;10.408;2023-11-19T11:50:16;30.50;;;5.80;;
6999;SDS011;3540;53.242;10.408;2023-11-19T11:55:23;28.07;;;6.00;;
6999;SDS011;3540;53.242;10.408;2023-11-19T11:58:02;27.77;;;5.37;;
6999;SDS011;3540;53.242;10.408;2023-11-19T12:00:30;23.60;;;5.17;;
6999;SDS011;3540;53.242;10.408;2023-11-19T12:02:59;23.27;;;5.13;;
6999;SDS011;3540;53.242;10.408;2023-11-19T12:05:26;29.87;;;5.50;;
6999;SDS011;3540;53.242;10.408;2023-11-19T12:08:13;27.23;;;5.60;;
6999;SDS011;3540;53.242;10.408;2023-11-19T12:10:47;21.93;;;5.20;;
6999;SDS011;3540;53.242;10.408;2023-11-19T12:13:15;25.57;;;5.43;;
6999;SDS011;3540;53.242;10.408;2023-11-19T12:18:23;20.63;;;5.03;;
6999;SDS011;3540;53.242;10.408;2023-11-19T12:20:49;21.23;;;4.50;;
6999;SDS011;3540;53.242;10.408;2023-11-19T12:23:15;22.10;;;4.90;;
6999;SDS011;3540;53.242;10.408;2023-11-19T12:25:41;24.43;;;5.40;;
6999;SDS011;3540;53.242;10.408;2023-11-19T12:28:11;25.83;;;5.27;;
6999;SDS011;3540;53.242;10.408;2023-11-19T12:30:38;23.43;;;5.00;;
6999;SDS011;3540;53.242;10.408;2023-11-19T12:33:10;21.53;;;4.67;;
6999;SDS011;3540;53.242;10.408;2023-11-19T12:35:46;22.53;;;5.50;;
6999;SDS011;3540;53.242;10.408;2023-11-19T12:38:22;24.53;;;5.43;;
6999;SDS011;3540;53.242;10.408;2023-11-19T12:41:04;18.00;;;4.03;;
6999;SDS011;3540;53.242;10.408;2023-11-19T12:43:36;24.50;;;5.07;;
6999;SDS011;3540;53.242;10.408;2023-11-19T12:46:18;28.40;;;5.07;;
6999;SDS011;3540;53.242;10.408;2023-11-19T12:48:45;25.40;;;5.03;;
6999;SDS011;3540;53.242;10.408;2023-11-19T12:51:12;24.97;;;5.13;;
6999;SDS011;3540;53.242;10.408;2023-11-19T12:53:51;23.17;;;4.63;;
6999;SDS011;3540;53.242;10.408;2023-11-19T12:56:20;26.53;;;5.30;;
6999;SDS011;3540;53.242;10.408;2023-11-19T12:58:47;25.77;;;5.10;;
6999;SDS011;3540;53.242;10.408;2023-11-19T13:01:17;26.40;;;6.07;;
6999;SDS011;3540;53.242;10.408;2023-11-19T13:03:44;21.93;;;4.93;;
6999;SDS011;3540;53.242;10.408;2023-11-19T13:06:11;23.50;;;5.53;;
6999;SDS011;3540;53.242;10.408;2023-11-19T13:08:42;22.80;;;4.37;;
6999;SDS011;3540;53.242;10.408;2023-11-19T13:11:09;20.33;;;4.80;;
6999;SDS011;3540;53.242;10.408;2023-11-19T13:13:53;22.80;;;5.07;;
6999;SDS011;3540;53.242;10.408;2023-11-19T13:16:18;28.73;;;5.13;;
6999;SDS011;3540;53.242;10.408;2023-11-19T13:18:44;25.40;;;5.57;;
6999;SDS011;3540;53.242;10.408;2023-11-19T13:21:10;25.90;;;5.07;;
6999;SDS011;3540;53.242;10.408;2023-11-19T13:23:35;26.27;;;5.60;;
6999;SDS011;3540;53.242;10.408;2023-11-19T13:26:01;21.30;;;5.03;;
6999;SDS011;3540;53.242;10.408;2023-11-19T13:28:28;25.60;;;5.87;;
6999;SDS011;3540;53.242;10.408;2023-11-19T13:30:54;26.63;;;5.47;;
6999;SDS011;3540;53.242;10.408;2023-11-19T13:33:20;30.70;;;5.43;;
6999;SDS011;3540;53.242;10.408;2023-11-19T13:35:45;28.40;;;5.57;;
6999;SDS011;3540;53.242;10.408;2023-11-19T13:38:11;33.50;;;5.73;;
6999;SDS011;3540;53.242;10.408;2023-11-19T13:40:36;23.20;;;5.33;;
6999;SDS011;3540;53.242;10.408;2023-11-19T13:43:02;25.73;;;5.70;;
6999;SDS011;3540;53.242;10.408;2023-11-19T13:45:28;25.20;;;5.93;;
6999;SDS011;3540;53.242;10.408;2023-11-19T13:47:53;31.37;;;6.27;;
6999;SDS011;3540;53.242;10.408;2023-11-19T13:50:19;28.27;;;6.00;;
6999;SDS011;3540;53.242;10.408;2023-11-19T13:52:45;21.63;;;5.33;;
6999;SDS011;3540;53.242;10.408;2023-11-19T13:55:12;30.63;;;6.27;;
6999;SDS011;3540;53.242;10.408;2023-11-19T13:57:39;28.93;;;6.63;;
6999;SDS011;3540;53.242;10.408;2023-11-19T14:00:07;32.10;;;5.63;;
6999;SDS011;3540;53.242;10.408;2023-11-19T14:02:40;33.47;;;6.63;;
6999;SDS011;3540;53.242;10.408;2023-11-19T14:05:07;33.27;;;6.67;;
6999;SDS011;3540;53.242;10.408;2023-11-19T14:07:33;33.77;;;6.43;;
6999;SDS011;3540;53.242;10.408;2023-11-19T14:09:59;35.23;;;6.37;;
6999;SDS011;3540;53.242;10.408;2023-11-19T14:12:25;35.17;;;6.50;;
6999;SDS011;3540;53.242;10.408;2023-11-19T14:14:50;31.33;;;5.47;;
6999;SDS011;3540;53.242;10.408;2023-11-19T14:17:16;30.73;;;5.27;;
6999;SDS011;3540;53.242;10.408;2023-11-19T14:19:42;30.07;;;6.50;;
6999;SDS011;3540;53.242;10.408;2023-11-19T14:22:09;29.73;;;5.90;;
6999;SDS011;3540;53.242;10.408;2023-11-19T14:24:35;35.17;;;6.27;;
6999;SDS011;3540;53.242;10.408;2023-11-19T14:27:00;39.37;;;6.87;;
6999;SDS011;3540;53.242;10.408;2023-11-19T14:29:27;29.07;;;5.93;;
6999;SDS011;3540;53.242;10.408;2023-11-19T14:31:56;28.47;;;6.07;;
6999;SDS011;3540;53.242;10.408;2023-11-19T14:34:22;28.40;;;5.17;;
6999;SDS011;3540;53.242;10.408;2023-11-19T14:36:47;26.33;;;5.23;;
6999;SDS011;3540;53.242;10.408;2023-11-19T14:39:14;28.80;;;5.70;;
6999;SDS011;3540;53.242;10.408;2023-11-19T14:41:40;28.67;;;5.93;;
6999;SDS011;3540;53.242;10.408;2023-11-19T14:44:07;27.07;;;5.27;;
6999;SDS011;3540;53.242;10.408;2023-11-19T14:46:34;23.90;;;4.67;;
6999;SDS011;3540;53.242;10.408;2023-11-19T14:49:00;19.93;;;4.73;;
6999;SDS011;3540;53.242;10.408;2023-11-19T14:51:26;23.50;;;4.33;;
6999;SDS011;3540;53.242;10.408;2023-11-19T14:53:51;23.70;;;4.73;;
6999;SDS011;3540;53.242;10.408;2023-11-19T14:56:17;23.40;;;4.63;;
6999;SDS011;3540;53.242;10.408;2023-11-19T14:58:42;20.07;;;4.53;;
6999;SDS011;3540;53.242;10.408;2023-11-19T15:01:12;22.17;;;4.83;;
6999;SDS011;3540;53.242;10.408;2023-11-19T15:03:39;20.80;;;4.43;;
6999;SDS011;3540;53.242;10.408;2023-11-19T15:06:05;20.37;;;4.10;;
6999;SDS011;3540;53.242;10.408;2023-11-19T15:08:32;18.30;;;3.53;;
6999;SDS011;3540;53.242;10.408;2023-11-19T15:10:58;16.50;;;4.10;;
6999;SDS011;3540;53.242;10.408;2023-11-19T15:13:24;14.20;;;3.67;;
6999;SDS011;3540;53.242;10.408;2023-11-19T15:15:50;13.20;;;3.27;;